VTSH  Songkhla Airport

Add Bookmark

Thailand

Status IATA
Operational SGZ
Latitude Longitude
7° 11' 11" N 100° 36' 28" E
7.186560 100.608002
Local (DST + 7) UTC (GMT + 7)
Nov 24, 2014 11:00 Nov 24, 2014 16:00
Sunrise-Sunset Local UTC
Begin Civil Twilight 05:48 22:48
Sunrise 06:10 23:10
Sunset 05:58 10:58
End Civil Twilight 06:20 11:20

Current Weather

METAR Observed MVFR
VTSH 240300Z 09004KT 8000 FEW020 BKN300 29/27 Q1011 A2986 Mon, Nov 24, 2014 @ 03:00 UTC
(13 Hours ago)
Marginal Visual Flight Rules
Wind Visibility Clouds Conditions
090° at 4 knots (7 kph) 8000 meters
  • Few at 2,000' AGL
  • Broken at 30,000' AGL
  • No significant weather
Temperatures Readings Precipitation
Current Temp 29°C (84°F)
Dewpoint 27°C (81°F)
Heat Index 37°C (98°F)
Humidity 89%
Altimeter 29.85"Hg
Sea Level Pressure 1011mb
Field Elevation 16.4'
None Recorded

Additional weather within a 92.6km radius of VTSH

Map ICAO Location
VTSS 36.9km S (220°)

24 Hour Weather History

Loading
-

24 Hour Weather Graphs

Loading
-

CheckWX.com is intended as a tool to help pilots better visualize weather data. It is not intended as a substitute for an official weather briefing obtained from a Flight Service Station. CheckWX.com does not meet the FAA requirements for an official pre-flight weather briefing. Therefore, it's important that pilots still call and obtain an official FSS pre-flight weather briefing.